Time;durP1;ratioP1;P1;durP2;ratioP2;P2;SDS_P1;SDS_P2;PMS_P1;PMS_P2;Temp;Humidity;BMP_temperature;BMP_pressure;BME280_temperature;BME280_humidity;BME280_pressure;Samples;Min_cycle;Max_cycle;Signal;HPM_P1;HPM_P2
2021/07/14 00:00:20;;;;;;;82.03;61.23;;;19.90;99.90;;;;;;5015800;28;20433;-92
2021/07/14 00:02:49;;;;;;;82.60;61.53;;;19.20;99.90;;;;;;4998869;28;20444;-91
2021/07/14 00:05:38;;;;;;;77.63;60.47;;;20.20;99.90;;;;;;4996369;28;20460;-92
2021/07/14 00:08:10;;;;;;;77.47;60.60;;;20.20;99.90;;;;;;5009690;28;20475;-91
2021/07/14 00:10:51;;;;;;;;;;;;;;;;;;;;;
2021/07/14 00:24:04;;;;;;;74.83;58.73;;;20.30;99.90;;;;;;5013369;28;20424;-92
2021/07/14 00:26:33;;;;;;;73.27;59.50;;;20.50;99.90;;;;;;5009623;28;20416;-92
2021/07/14 00:29:12;;;;;;;69.73;54.80;;;23.50;99.90;;;;;;4994971;28;20432;-92
2021/07/14 00:31:45;;;;;;;70.53;57.60;;;22.20;99.90;;;;;;5012490;28;20459;-92
2021/07/14 00:34:11;;;;;;;75.60;58.63;;;21.70;99.90;;;;;;4956919;29;20427;-91
2021/07/14 00:36:42;;;;;;;76.20;59.60;;;21.20;99.90;;;;;;4963806;28;20453;-92
2021/07/14 00:39:11;;;;;;;68.90;57.90;;;20.60;99.90;;;;;;4963806;28;20238;-93
2021/07/14 00:41:37;;;;;;;76.67;58.20;;;20.50;99.90;;;;;;4963076;28;20442;-92
2021/07/14 00:44:03;;;;;;;67.30;57.27;;;21.10;99.90;;;;;;4970058;29;20434;-92
2021/07/14 00:46:29;;;;;;;72.60;56.77;;;18.60;99.90;;;;;;4954153;29;20182;-92
2021/07/14 00:49:00;;;;;;;67.77;52.67;;;20.40;99.90;;;;;;4951788;29;20419;-92
2021/07/14 00:51:34;;;;;;;65.80;55.93;;;20.40;99.90;;;;;;4950973;29;20430;-91
2021/07/14 00:54:08;;;;;;;66.33;54.00;;;20.50;99.90;;;;;;4949421;29;20441;-92
2021/07/14 00:56:36;;;;;;;70.27;54.67;;;20.20;99.90;;;;;;4933416;29;20457;-92
2021/07/14 00:59:02;;;;;;;55.50;47.43;;;20.70;99.90;;;;;;4950976;29;20434;-92
2021/07/14 01:01:28;;;;;;;51.73;46.20;;;20.50;99.90;;;;;;4951265;29;20422;-91
2021/07/14 01:04:17;;;;;;;60.30;50.30;;;20.60;99.90;;;;;;4950660;28;20429;-91
2021/07/14 01:06:59;;;;;;;55.67;49.13;;;21.90;99.90;;;;;;5006892;28;20424;-92
2021/07/14 01:09:36;;;;;;;61.23;48.00;;;18.70;99.90;;;;;;4992142;28;20444;-92
2021/07/14 01:12:09;;;;;;;53.40;47.80;;;24.70;99.90;;;;;;5008291;28;20874;-90
2021/07/14 01:15:04;;;;;;;54.07;46.83;;;20.60;99.90;;;;;;4990625;28;20421;-91
2021/07/14 01:17:41;;;;;;;63.97;50.97;;;19.10;99.90;;;;;;4992565;28;20412;-92
2021/07/14 01:20:22;;;;;;;63.13;49.70;;;19.90;99.90;;;;;;5009836;28;20798;-92
2021/07/14 01:23:18;;;;;;;56.00;47.50;;;20.40;99.90;;;;;;4992621;28;20420;-92
2021/07/14 01:25:56;;;;;;;54.83;47.63;;;22.70;99.90;;;;;;4993591;28;20420;-92
2021/07/14 01:28:27;;;;;;;53.40;45.80;;;20.40;99.90;;;;;;4991979;28;20412;-92
2021/07/14 01:30:54;;;;;;;52.17;45.93;;;22.20;99.90;;;;;;4990661;28;20413;-91
2021/07/14 01:33:32;;;;;;;59.90;48.93;;;20.50;99.90;;;;;;5006176;28;20484;-89
2021/07/14 01:36:01;;;;;;;56.70;46.40;;;21.60;99.90;;;;;;5016220;28;20443;-89
2021/07/14 01:38:27;;;;;;;56.40;47.60;;;19.80;99.90;;;;;;5015199;28;20459;-91
2021/07/14 01:40:55;;;;;;;60.33;47.80;;;20.90;99.90;;;;;;4980474;28;20991;-90
2021/07/14 01:43:22;;;;;;;51.97;44.10;;;20.90;99.90;;;;;;4998655;28;20448;-90
2021/07/14 01:45:51;;;;;;;49.77;42.13;;;21.50;99.90;;;;;;4995603;28;20408;-91
2021/07/14 01:48:17;;;;;;;49.50;42.97;;;22.30;99.90;;;;;;4997238;28;20448;-90
2021/07/14 01:50:48;;;;;;;50.50;45.10;;;21.80;99.90;;;;;;4995443;28;20413;-90
2021/07/14 01:53:14;;;;;;;48.80;43.03;;;22.20;99.90;;;;;;4995436;28;20503;-90
2021/07/14 01:55:43;;;;;;;50.37;43.90;;;20.70;99.90;;;;;;4994162;28;20408;-90
2021/07/14 01:58:09;;;;;;;47.70;42.70;;;21.20;99.90;;;;;;4994308;28;20554;-89
2021/07/14 02:00:35;;;;;;;47.37;41.83;;;22.00;99.90;;;;;;4995830;28;20421;-89
2021/07/14 02:05:31;;;;;;;50.23;44.30;;;21.20;99.90;;;;;;4996446;28;20412;-89
2021/07/14 02:07:58;;;;;;;50.00;44.60;;;22.40;99.90;;;;;;5000206;28;20423;-90
2021/07/14 02:10:24;;;;;;;53.30;45.47;;;21.70;99.90;;;;;;4997696;28;20439;-90
2021/07/14 02:12:51;;;;;;;59.07;46.27;;;21.70;99.90;;;;;;4981795;28;20467;-91
2021/07/14 02:15:19;;;;;;;52.97;46.93;;;22.60;99.90;;;;;;4982892;28;20427;-90
2021/07/14 02:17:51;;;;;;;61.97;47.70;;;20.50;99.90;;;;;;4999056;28;20488;-90
2021/07/14 02:20:19;;;;;;;55.90;46.07;;;20.60;99.90;;;;;;4985928;28;20424;-90
2021/07/14 02:22:49;;;;;;;58.40;48.33;;;21.40;99.90;;;;;;4985381;28;20432;-92
2021/07/14 02:25:15;;;;;;;57.93;49.17;;;22.40;99.90;;;;;;4992039;28;20460;-91
2021/07/14 02:27:43;;;;;;;65.70;51.57;;;19.60;99.90;;;;;;5000570;28;20425;-89
2021/07/14 02:30:18;;;;;;;63.37;50.67;;;20.40;99.90;;;;;;4984886;28;20417;-90
2021/07/14 02:32:49;;;;;;;62.90;51.10;;;20.00;99.90;;;;;;5002592;28;20563;-91
2021/07/14 02:35:15;;;;;;;62.30;49.73;;;20.00;99.90;;;;;;4983256;28;20411;-90
2021/07/14 02:37:49;;;;;;;62.97;51.63;;;22.30;99.90;;;;;;4985941;28;20420;-89
2021/07/14 02:40:31;;;;;;;70.73;54.23;;;20.00;99.90;;;;;;5005566;28;20449;-92
2021/07/14 02:43:00;;;;;;;71.00;52.07;;;22.10;99.90;;;;;;4988898;28;20636;-91
2021/07/14 02:45:28;;;;;;;85.27;60.47;;;21.80;99.90;;;;;;5005872;28;20409;-89
2021/07/14 02:47:56;;;;;;;84.67;59.80;;;21.20;99.90;;;;;;4989870;28;20424;-91
2021/07/14 02:50:25;;;;;;;88.33;60.53;;;18.90;99.90;;;;;;5003981;28;20828;-90
2021/07/14 02:52:55;;;;;;;92.97;62.97;;;20.60;99.90;;;;;;5000624;28;20463;-90
2021/07/14 02:55:24;;;;;;;83.70;59.20;;;18.20;99.90;;;;;;5001590;28;20412;-89
2021/07/14 02:57:54;;;;;;;89.37;60.30;;;21.80;99.90;;;;;;5002585;28;20408;-90
2021/07/14 03:00:21;;;;;;;87.03;58.10;;;22.20;99.90;;;;;;4998384;28;20408;-89
2021/07/14 03:02:47;;;;;;;92.90;62.60;;;20.40;99.90;;;;;;5000634;28;20477;-90
2021/07/14 03:05:14;;;;;;;72.93;55.47;;;21.70;99.90;;;;;;4999730;28;20416;-89
2021/07/14 03:07:42;;;;;;;86.00;57.20;;;22.30;99.90;;;;;;4999896;28;20427;-91
2021/07/14 03:10:09;;;;;;;80.47;56.47;;;22.60;99.90;;;;;;4999733;28;20412;-90
2021/07/14 03:12:36;;;;;;;67.03;53.30;;;20.00;99.90;;;;;;4983436;28;20529;-90
2021/07/14 03:15:08;;;;;;;71.87;54.27;;;22.10;99.90;;;;;;4999567;28;20452;-90
2021/07/14 03:17:36;;;;;;;66.73;52.37;;;19.90;99.90;;;;;;5001318;28;20413;-91
2021/07/14 03:20:06;;;;;;;63.20;51.37;;;21.00;99.90;;;;;;5003602;28;20428;-90
2021/07/14 03:22:33;;;;;;;63.93;50.07;;;19.90;99.90;;;;;;5008801;28;20405;-91
2021/07/14 03:24:59;;;;;;;63.67;49.43;;;21.80;99.90;;;;;;5011021;28;20424;-90
2021/07/14 03:27:26;;;;;;;56.93;45.93;;;21.90;99.90;;;;;;5013239;28;20503;-89
2021/07/14 03:29:54;;;;;;;60.83;45.70;;;21.50;99.90;;;;;;5014388;28;20444;-89
2021/07/14 03:32:20;;;;;;;65.83;48.37;;;22.70;99.90;;;;;;5014402;28;20956;-89
2021/07/14 03:34:49;;;;;;;56.70;46.60;;;20.00;99.90;;;;;;5015990;28;20412;-89
2021/07/14 03:37:15;;;;;;;58.83;45.37;;;20.80;99.90;;;;;;5017498;28;20536;-90
2021/07/14 03:39:42;;;;;;;61.33;45.33;;;21.70;99.90;;;;;;5018054;28;20415;-88
2021/07/14 03:42:11;;;;;;;60.97;45.23;;;22.10;99.90;;;;;;5017239;28;20423;-90
2021/07/14 03:44:41;;;;;;;53.97;43.03;;;19.20;99.90;;;;;;4999257;28;20511;-91
2021/07/14 03:47:07;;;;;;;51.33;42.40;;;20.00;99.90;;;;;;5013708;28;20436;-89
2021/07/14 03:49:34;;;;;;;48.90;38.93;;;20.40;99.90;;;;;;5016731;28;20420;-89
2021/07/14 03:52:02;;;;;;;46.90;39.63;;;20.80;99.90;;;;;;5010456;28;20787;-90
2021/07/14 03:54:31;;;;;;;50.90;39.77;;;21.80;99.90;;;;;;5008942;28;20445;-91
2021/07/14 03:56:57;;;;;;;46.00;38.37;;;20.20;99.90;;;;;;5006937;28;20424;-91
2021/07/14 03:59:24;;;;;;;35.43;31.37;;;18.60;99.90;;;;;;5004941;28;20420;-89
2021/07/14 04:01:51;;;;;;;40.73;35.70;;;20.70;99.90;;;;;;5007342;28;20439;-89
2021/07/14 04:04:17;;;;;;;41.13;34.27;;;21.40;99.90;;;;;;5003221;28;20428;-90
2021/07/14 04:06:47;;;;;;;38.60;34.40;;;22.30;99.90;;;;;;5001468;28;20780;-89
2021/07/14 04:09:16;;;;;;;47.60;39.53;;;22.70;99.90;;;;;;4987050;28;20421;-89
2021/07/14 04:11:42;;;;;;;42.83;37.07;;;20.10;99.90;;;;;;4986774;28;20413;-91
2021/07/14 04:14:07;;;;;;;40.37;35.73;;;22.40;99.90;;;;;;4985662;28;20428;-90
2021/07/14 04:16:36;;;;;;;44.13;37.97;;;20.30;99.90;;;;;;5003000;28;20436;-91
2021/07/14 04:19:02;;;;;;;44.47;38.67;;;20.00;99.90;;;;;;5002684;28;20260;-90
2021/07/14 04:21:28;;;;;;;48.40;39.07;;;21.40;99.90;;;;;;5002492;28;20845;-90
2021/07/14 04:23:55;;;;;;;44.77;38.97;;;20.30;99.90;;;;;;5000649;28;20173;-90
2021/07/14 04:26:22;;;;;;;48.47;39.80;;;19.90;99.90;;;;;;4986182;28;20932;-91
2021/07/14 04:28:48;;;;;;;44.07;39.43;;;20.60;99.90;;;;;;4990424;28;20475;-92
2021/07/14 04:31:13;;;;;;;48.33;41.47;;;21.90;99.90;;;;;;5005511;28;20409;-91
2021/07/14 04:33:44;;;;;;;52.13;41.40;;;20.70;99.90;;;;;;5004822;28;20480;-86
2021/07/14 04:36:09;;;;;;;53.77;42.70;;;22.20;99.90;;;;;;4991857;28;20178;-91
2021/07/14 04:38:38;;;;;;;70.97;49.10;;;22.60;99.90;;;;;;5003253;28;20466;-90
2021/07/14 04:41:05;;;;;;;59.60;47.73;;;20.80;99.90;;;;;;4990009;28;20424;-88
2021/07/14 04:43:34;;;;;;;65.03;49.93;;;19.10;99.90;;;;;;5004987;28;20424;-90
2021/07/14 04:46:00;;;;;;;63.33;48.40;;;21.80;99.90;;;;;;5006510;28;20412;-90
2021/07/14 04:48:25;;;;;;;64.90;50.30;;;19.90;99.90;;;;;;5004058;28;20419;-90
2021/07/14 04:50:53;;;;;;;72.27;51.97;;;22.50;99.90;;;;;;4985541;28;20185;-89
2021/07/14 04:53:19;;;;;;;79.10;51.87;;;21.70;99.90;;;;;;5002020;28;20212;-91
2021/07/14 04:55:45;;;;;;;78.20;54.97;;;22.30;99.90;;;;;;5002182;28;20413;-90
2021/07/14 04:58:11;;;;;;;75.33;53.87;;;21.30;99.90;;;;;;5001466;28;20177;-89
2021/07/14 05:00:37;;;;;;;76.27;53.90;;;20.60;99.90;;;;;;4985298;28;20205;-88
2021/07/14 05:03:03;;;;;;;70.17;53.20;;;20.10;99.90;;;;;;4987097;28;20865;-90
2021/07/14 05:05:29;;;;;;;79.93;55.90;;;20.30;99.90;;;;;;5003551;28;20421;-87
2021/07/14 05:07:55;;;;;;;78.97;56.00;;;21.30;99.90;;;;;;5016990;28;20424;-91
2021/07/14 05:10:24;;;;;;;74.20;56.00;;;21.30;99.90;;;;;;5015541;28;20169;-90
2021/07/14 05:12:53;;;;;;;70.23;54.87;;;22.00;99.90;;;;;;5002858;28;20479;-88
2021/07/14 05:15:19;;;;;;;86.20;58.43;;;19.90;99.90;;;;;;5004832;28;20500;-91
2021/07/14 05:17:45;;;;;;;85.70;59.97;;;20.00;99.90;;;;;;5005082;28;20416;-92
2021/07/14 05:20:11;;;;;;;74.87;54.30;;;19.50;99.90;;;;;;4988692;28;20177;-90
2021/07/14 05:22:37;;;;;;;80.37;55.67;;;19.80;99.90;;;;;;4999640;28;20184;-91
2021/07/14 05:25:10;;;;;;;79.20;58.37;;;22.80;99.90;;;;;;5001950;28;20256;-88
2021/07/14 05:27:36;;;;;;;78.77;56.07;;;19.80;99.90;;;;;;4986138;28;20436;-88
2021/07/14 05:30:05;;;;;;;70.23;55.33;;;18.40;99.90;;;;;;5000258;28;20417;-87
2021/07/14 05:32:31;;;;;;;69.20;54.23;;;20.50;99.90;;;;;;4986664;28;20464;-89
2021/07/14 05:34:59;;;;;;;66.43;53.60;;;21.10;99.90;;;;;;5004018;28;20456;-90
2021/07/14 05:37:28;;;;;;;78.90;54.50;;;20.10;99.90;;;;;;5004245;28;20482;-90
2021/07/14 05:39:53;;;;;;;67.50;49.97;;;19.90;99.90;;;;;;4988602;28;20432;-88
2021/07/14 05:42:19;;;;;;;64.07;47.93;;;19.60;99.90;;;;;;4986316;28;20427;-91
2021/07/14 05:44:45;;;;;;;64.27;48.10;;;18.60;99.90;;;;;;4656508;28;10000892;-90
2021/07/14 05:47:10;;;;;;;64.40;47.90;;;22.30;99.90;;;;;;4985038;28;20189;-88
2021/07/14 05:49:39;;;;;;;59.43;44.07;;;20.20;99.90;;;;;;5001413;28;20184;-90
2021/07/14 05:52:08;;;;;;;50.23;41.40;;;22.40;99.90;;;;;;5001814;28;20490;-89
2021/07/14 05:54:33;;;;;;;47.37;40.57;;;19.00;99.90;;;;;;4986179;28;20428;-89
2021/07/14 05:56:59;;;;;;;54.33;43.50;;;21.60;99.90;;;;;;4987241;28;20478;-88
2021/07/14 05:59:25;;;;;;;49.83;41.57;;;21.80;99.90;;;;;;4986111;28;20177;-90
2021/07/14 06:01:50;;;;;;;53.30;43.90;;;19.90;99.90;;;;;;4998881;28;20177;-89
2021/07/14 06:04:16;;;;;;;55.00;42.73;;;22.20;99.90;;;;;;4998004;28;20259;-89
2021/07/14 06:06:43;;;;;;;52.00;41.40;;;20.40;99.90;;;;;;4978348;28;20173;-90
2021/07/14 06:09:09;;;;;;;57.10;44.60;;;21.50;99.90;;;;;;4995230;28;20712;-89
2021/07/14 06:11:35;;;;;;;54.30;45.60;;;21.90;99.90;;;;;;4999765;28;20439;-88
2021/07/14 06:14:00;;;;;;;58.30;46.00;;;23.00;99.90;;;;;;4999496;28;20472;-90
2021/07/14 06:16:26;;;;;;;53.90;43.23;;;22.20;99.90;;;;;;5001945;28;20240;-89
2021/07/14 06:18:51;;;;;;;55.27;44.47;;;22.30;99.90;;;;;;4983570;28;20173;-89
2021/07/14 06:21:17;;;;;;;48.57;41.10;;;21.80;99.90;;;;;;5004971;28;20170;-89
2021/07/14 06:23:43;;;;;;;51.83;42.67;;;21.50;99.90;;;;;;5008778;28;20165;-91
2021/07/14 06:26:09;;;;;;;51.17;40.63;;;22.10;99.90;;;;;;5004090;28;20183;-89
2021/07/14 06:28:36;;;;;;;52.70;40.00;;;23.60;99.90;;;;;;5003843;28;20165;-88
2021/07/14 06:31:01;;;;;;;47.73;40.17;;;22.20;99.90;;;;;;4988321;28;20173;-89
2021/07/14 06:33:28;;;;;;;46.40;38.17;;;22.80;99.90;;;;;;4987215;28;20494;-89
2021/07/14 06:35:54;;;;;;;46.30;38.57;;;22.90;99.90;;;;;;4985325;28;20177;-90
2021/07/14 06:38:20;;;;;;;42.40;37.87;;;20.50;99.90;;;;;;4987126;28;20848;-87
2021/07/14 06:40:48;;;;;;;41.90;37.53;;;20.70;99.90;;;;;;5008160;28;20442;-90
2021/07/14 06:43:16;;;;;;;42.53;34.47;;;20.70;99.90;;;;;;4989946;28;20483;-89
2021/07/14 06:45:47;;;;;;;42.13;34.60;;;19.60;99.90;;;;;;4986137;28;20444;-89
2021/07/14 06:48:14;;;;;;;39.60;33.80;;;20.80;99.90;;;;;;4987352;28;20437;-90
2021/07/14 06:50:40;;;;;;;40.07;33.00;;;20.90;99.90;;;;;;5001544;28;20437;-88
2021/07/14 06:53:06;;;;;;;37.23;33.13;;;21.50;99.90;;;;;;5003372;28;20472;-87
2021/07/14 06:55:34;;;;;;;38.43;33.43;;;22.90;99.90;;;;;;4984211;28;20459;-90
2021/07/14 06:58:00;;;;;;;35.53;31.27;;;21.10;99.90;;;;;;4636525;28;10000195;-88
2021/07/14 07:00:26;;;;;;;34.23;30.37;;;22.00;99.90;;;;;;4980252;28;20930;-89
2021/07/14 07:02:52;;;;;;;31.13;27.87;;;22.70;99.90;;;;;;4980899;28;20420;-88
2021/07/14 07:05:18;;;;;;;43.30;29.00;;;20.50;99.90;;;;;;4980055;28;20909;-89
2021/07/14 07:07:44;;;;;;;36.30;30.70;;;20.30;99.90;;;;;;4980099;28;20181;-88
2021/07/14 07:10:10;;;;;;;31.83;28.37;;;23.20;99.90;;;;;;4983566;28;20433;-89
2021/07/14 07:12:36;;;;;;;32.47;29.07;;;20.20;99.90;;;;;;4999374;28;20201;-88
2021/07/14 07:15:03;;;;;;;30.37;26.67;;;21.20;99.90;;;;;;4983190;28;20475;-88
2021/07/14 07:17:29;;;;;;;30.10;26.83;;;20.20;99.90;;;;;;4999609;28;20500;-88
2021/07/14 07:19:57;;;;;;;25.10;22.67;;;21.00;99.90;;;;;;5000610;28;20427;-89
2021/07/14 07:22:23;;;;;;;25.60;22.90;;;18.00;99.90;;;;;;4983609;28;20173;-89
2021/07/14 07:24:48;;;;;;;26.30;23.60;;;21.90;99.90;;;;;;5005803;28;20420;-88
2021/07/14 07:27:14;;;;;;;31.10;25.70;;;20.40;99.90;;;;;;4985798;28;20452;-89
2021/07/14 07:29:40;;;;;;;24.30;21.80;;;19.30;99.90;;;;;;4986193;28;20196;-88
2021/07/14 07:32:06;;;;;;;25.43;23.03;;;22.90;99.90;;;;;;4985307;28;20329;-90
2021/07/14 07:34:32;;;;;;;27.00;20.70;;;20.30;99.90;;;;;;4984443;28;20270;-88
2021/07/14 07:37:02;;;;;;;21.50;19.37;;;20.00;99.90;;;;;;5003634;28;20444;-89
2021/07/14 07:39:28;;;;;;;21.33;19.33;;;22.00;99.90;;;;;;4985977;28;20185;-89
2021/07/14 07:41:54;;;;;;;24.47;22.07;;;24.90;99.90;;;;;;5005378;28;20877;-90
2021/07/14 07:44:20;;;;;;;19.60;17.80;;;20.00;99.90;;;;;;4987187;28;20260;-90
2021/07/14 07:46:46;;;;;;;18.53;16.83;;;19.60;99.90;;;;;;4985952;28;20439;-90
2021/07/14 07:49:11;;;;;;;16.10;14.73;;;21.40;99.90;;;;;;4984070;28;20417;-89
2021/07/14 07:51:38;;;;;;;14.83;13.43;;;18.10;99.90;;;;;;5003506;28;20166;-90
2021/07/14 07:54:04;;;;;;;15.63;14.07;;;22.10;99.90;;;;;;4984933;28;20237;-90
2021/07/14 07:56:38;;;;;;;14.53;13.27;;;20.60;99.90;;;;;;5002947;28;20412;-89
2021/07/14 07:59:04;;;;;;;12.70;11.60;;;19.90;99.90;;;;;;4995958;28;20430;-89
2021/07/14 08:01:34;;;;;;;11.63;10.67;;;21.50;99.90;;;;;;5001104;28;20444;-91
2021/07/14 08:03:59;;;;;;;11.33;10.43;;;21.40;99.90;;;;;;5004932;28;20451;-91
2021/07/14 08:06:25;;;;;;;11.23;10.50;;;18.50;99.90;;;;;;4987206;28;20429;-91
2021/07/14 08:08:53;;;;;;;9.40;8.90;;;22.80;99.90;;;;;;4992236;28;20177;-88
2021/07/14 08:11:18;;;;;;;10.00;9.20;;;22.60;99.90;;;;;;5001899;28;20439;-89
2021/07/14 08:13:44;;;;;;;12.60;11.50;;;21.10;99.90;;;;;;5003506;28;20472;-88
2021/07/14 08:16:10;;;;;;;10.17;9.60;;;21.50;99.90;;;;;;4989775;28;20185;-89
2021/07/14 08:18:36;;;;;;;8.80;8.10;;;18.90;99.90;;;;;;4989461;28;20520;-89
2021/07/14 08:21:02;;;;;;;10.93;10.20;;;21.70;99.90;;;;;;5006529;28;20248;-90
2021/07/14 08:23:36;;;;;;;10.10;9.30;;;21.40;99.90;;;;;;5006151;28;20449;-90
2021/07/14 08:26:01;;;;;;;9.63;9.03;;;19.90;99.90;;;;;;4988380;28;20432;-90
2021/07/14 08:28:29;;;;;;;9.53;8.80;;;19.80;99.90;;;;;;4990870;28;20405;-90
2021/07/14 08:30:59;;;;;;;11.13;10.33;;;18.90;99.90;;;;;;4989653;28;20177;-91
2021/07/14 08:33:25;;;;;;;9.70;9.00;;;20.50;99.90;;;;;;4989480;28;20475;-89
2021/07/14 08:35:54;;;;;;;10.30;9.60;;;20.90;99.90;;;;;;5014586;28;20424;-89
2021/07/14 08:38:40;;;;;;;11.13;10.30;;;20.70;99.90;;;;;;5006710;28;20425;-89
2021/07/14 08:41:27;;;;;;;12.43;11.30;;;19.40;99.90;;;;;;5017250;28;20491;-90
2021/07/14 08:43:57;;;;;;;12.23;11.27;;;22.90;99.90;;;;;;5016463;28;20453;-90
2021/07/14 08:46:25;;;;;;;11.50;10.70;;;22.80;99.90;;;;;;5012753;28;20424;-90
2021/07/14 08:48:59;;;;;;;14.07;12.80;;;20.20;99.90;;;;;;5011315;28;20997;-90
2021/07/14 08:51:31;;;;;;;15.70;14.50;;;19.40;99.90;;;;;;5008926;28;20412;-90
2021/07/14 08:54:00;;;;;;;17.90;16.40;;;20.90;99.90;;;;;;5007348;28;20479;-91
2021/07/14 08:56:27;;;;;;;20.97;18.80;;;20.60;99.90;;;;;;5009621;28;20429;-92
2021/07/14 08:58:53;;;;;;;23.53;21.33;;;20.50;99.90;;;;;;4990003;28;20949;-92
2021/07/14 09:01:23;;;;;;;24.83;22.53;;;22.20;99.90;;;;;;4993210;28;20488;-89
2021/07/14 09:03:50;;;;;;;26.07;23.33;;;21.60;99.90;;;;;;4992542;28;20188;-89
2021/07/14 09:06:17;;;;;;;29.73;26.70;;;20.40;99.90;;;;;;4987806;28;20536;-89
2021/07/14 09:08:43;;;;;;;31.37;28.20;;;20.70;99.90;;;;;;5003121;28;20879;-92
2021/07/14 09:11:09;;;;;;;30.63;27.10;;;21.50;99.90;;;;;;4659551;28;10000145;-89
2021/07/14 09:13:40;;;;;;;33.40;28.37;;;19.30;99.90;;;;;;4997240;28;20201;-91
2021/07/14 09:16:07;;;;;;;39.70;31.87;;;20.10;99.90;;;;;;5004918;28;20173;-90
2021/07/14 09:18:35;;;;;;;38.20;32.70;;;20.20;99.90;;;;;;4997349;28;20409;-91
2021/07/14 09:21:15;;;;;;;35.67;30.63;;;20.80;99.90;;;;;;4968847;28;20547;-90
2021/07/14 09:23:40;;;;;;;31.77;28.47;;;22.70;99.90;;;;;;4971152;28;20417;-89
2021/07/14 09:26:10;;;;;;;32.20;28.80;;;22.70;99.90;;;;;;4989118;28;20455;-87
2021/07/14 09:28:37;;;;;;;38.50;31.60;;;24.00;99.90;;;;;;4991185;28;20247;-87
2021/07/14 09:31:10;;;;;;;44.00;33.23;;;23.00;99.90;;;;;;5008539;28;20416;-88
2021/07/14 09:33:41;;;;;;;45.03;37.10;;;20.20;99.90;;;;;;4983614;28;20781;-88
2021/07/14 09:36:07;;;;;;;46.43;36.60;;;19.50;99.90;;;;;;4991730;28;20401;-90
2021/07/14 09:38:35;;;;;;;49.07;38.37;;;20.60;99.90;;;;;;4991822;28;20416;-88
2021/07/14 09:41:07;;;;;;;47.40;36.33;;;18.40;99.90;;;;;;5006050;28;20161;-88
2021/07/14 09:43:34;;;;;;;50.20;37.07;;;20.20;99.90;;;;;;4984172;28;20570;-89
2021/07/14 09:46:04;;;;;;;53.13;41.00;;;18.30;99.90;;;;;;4999868;28;20412;-88
2021/07/14 09:48:38;;;;;;;53.67;39.57;;;21.80;99.90;;;;;;4983961;28;20472;-90
2021/07/14 09:51:12;;;;;;;54.37;38.07;;;20.30;99.90;;;;;;4998407;28;20422;-91
2021/07/14 09:53:42;;;;;;;48.23;35.50;;;19.90;99.90;;;;;;4981855;28;20512;-90
2021/07/14 09:56:15;;;;;;;49.20;35.70;;;22.90;99.90;;;;;;5000226;28;20435;-89
2021/07/14 09:58:44;;;;;;;52.30;37.53;;;22.60;99.90;;;;;;4981382;28;20436;-89
2021/07/14 10:01:16;;;;;;;52.40;37.53;;;20.60;99.90;;;;;;4981268;28;20416;-90
2021/07/14 10:03:50;;;;;;;56.47;40.53;;;22.00;99.90;;;;;;4999985;28;20499;-87
2021/07/14 10:06:25;;;;;;;71.60;42.80;;;21.20;99.90;;;;;;4979145;28;20515;-88
2021/07/14 10:09:25;;;;;;;60.50;42.23;;;20.90;99.90;;;;;;4976241;28;20778;-88
2021/07/14 10:13:04;;;;;;;63.87;42.73;;;20.20;99.90;;;;;;4978468;28;20433;-89
2021/07/14 10:15:31;;;;;;;60.97;40.33;;;20.20;99.90;;;;;;4941882;29;20444;-89
2021/07/14 10:18:00;;;;;;;59.83;42.30;;;23.00;99.90;;;;;;4938057;28;20516;-91
2021/07/14 10:20:37;;;;;;;59.70;43.73;;;21.60;99.90;;;;;;4981556;28;20929;-86
2021/07/14 10:23:19;;;;;;;59.90;42.37;;;20.30;99.90;;;;;;4980693;28;20444;-87
2021/07/14 10:26:04;;;;;;;63.73;42.30;;;20.60;99.90;;;;;;4987914;28;20496;-89
2021/07/14 10:28:30;;;;;;;63.83;46.83;;;20.60;99.90;;;;;;4988878;28;20413;-90
2021/07/14 10:30:58;;;;;;;78.97;49.10;;;22.80;99.90;;;;;;4989017;28;20448;-86
2021/07/14 10:33:24;;;;;;;83.13;48.70;;;22.50;99.90;;;;;;5008555;28;20511;-90
2021/07/14 10:35:51;;;;;;;75.60;48.40;;;21.70;99.90;;;;;;5009272;28;20419;-88
2021/07/14 10:38:27;;;;;;;88.00;52.77;;;21.70;99.90;;;;;;4989972;28;20447;-89
2021/07/14 10:41:01;;;;;;;83.07;52.77;;;22.80;99.90;;;;;;4991729;28;20424;-90
2021/07/14 10:43:31;;;;;;;89.70;54.83;;;19.90;99.90;;;;;;4988471;28;20427;-88
2021/07/14 10:46:25;;;;;;;92.57;57.33;;;20.60;99.90;;;;;;5010678;28;20438;-90
2021/07/14 10:48:52;;;;;;;88.50;54.30;;;22.80;99.90;;;;;;4990451;28;20445;-87
2021/07/14 10:51:27;;;;;;;90.23;55.17;;;19.40;99.90;;;;;;5009975;28;20420;-88
2021/07/14 10:54:08;;;;;;;;;;;;;;;;;;;;;
2021/07/14 10:56:55;;;;;;;98.37;56.67;;;22.70;99.90;;;;;;5006458;28;20442;-89
2021/07/14 10:59:22;;;;;;;86.37;54.03;;;20.80;99.90;;;;;;4994498;28;20423;-92
2021/07/14 11:01:55;;;;;;;93.03;55.40;;;20.70;99.90;;;;;;4995326;28;20443;-91
2021/07/14 11:04:27;;;;;;;85.07;54.77;;;22.60;99.90;;;;;;5005445;28;20467;-87
2021/07/14 11:06:57;;;;;;;75.33;51.97;;;20.10;99.90;;;;;;5004845;28;20419;-89
2021/07/14 11:09:41;;;;;;;77.50;51.93;;;20.20;99.90;;;;;;4999629;28;20443;-90
2021/07/14 11:12:13;;;;;;;76.97;49.50;;;19.80;99.90;;;;;;4983273;28;20449;-88
2021/07/14 11:14:49;;;;;;;73.90;51.70;;;20.30;99.90;;;;;;4981315;28;20464;-89
2021/07/14 11:17:15;;;;;;;71.93;49.63;;;20.20;99.90;;;;;;4980973;28;20787;-89
2021/07/14 11:19:52;;;;;;;69.33;48.97;;;21.80;99.90;;;;;;4981806;28;20428;-88
2021/07/14 11:22:44;;;;;;;77.80;52.60;;;22.00;99.90;;;;;;4966523;28;20425;-88
2021/07/14 11:25:25;;;;;;;74.27;50.47;;;21.90;99.90;;;;;;4961659;28;20421;-89
2021/07/14 11:28:00;;;;;;;77.77;47.70;;;22.60;99.90;;;;;;4984487;28;20492;-90
2021/07/14 11:30:32;;;;;;;65.80;44.47;;;20.70;99.90;;;;;;4985069;28;20413;-87
2021/07/14 11:33:01;;;;;;;59.70;39.67;;;21.90;99.90;;;;;;4990729;28;20472;-88
2021/07/14 11:35:34;;;;;;;53.23;34.57;;;20.30;99.90;;;;;;4973372;28;20436;-89
2021/07/14 11:38:02;;;;;;;66.10;41.67;;;19.90;99.90;;;;;;5001653;28;20436;-89
2021/07/14 11:40:38;;;;;;;58.87;38.67;;;22.90;99.90;;;;;;5003162;28;20958;-90
2021/07/14 11:43:14;;;;;;;54.77;36.80;;;20.00;99.90;;;;;;5002724;28;20414;-91
2021/07/14 11:45:45;;;;;;;61.43;39.10;;;20.90;99.90;;;;;;5004796;28;20487;-88
2021/07/14 11:48:24;;;;;;;68.03;40.30;;;20.40;99.90;;;;;;5005243;28;20381;-89
2021/07/14 11:50:54;;;;;;;62.63;41.63;;;22.40;99.90;;;;;;4992601;28;20432;-89
2021/07/14 11:56:14;;;;;;;64.03;42.20;;;21.90;99.90;;;;;;5007873;28;20405;-89
2021/07/14 11:58:48;;;;;;;57.77;40.90;;;22.80;99.90;;;;;;5006630;28;20424;-89
2021/07/14 12:01:24;;;;;;;63.07;41.67;;;23.10;99.90;;;;;;5006960;28;20427;-88
2021/07/14 12:04:15;;;;;;;71.90;43.77;;;20.70;99.90;;;;;;5009061;28;20405;-87
2021/07/14 12:06:47;;;;;;;76.90;47.90;;;19.70;99.90;;;;;;4991119;28;20971;-89
2021/07/14 12:09:22;;;;;;;84.73;49.17;;;19.70;99.90;;;;;;4991407;28;20455;-91
2021/07/14 12:11:54;;;;;;;77.03;46.20;;;20.20;99.90;;;;;;5007116;28;20481;-86
2021/07/14 12:14:32;;;;;;;67.87;46.73;;;20.90;99.90;;;;;;5011939;28;20441;-88
2021/07/14 12:17:01;;;;;;;63.60;42.43;;;22.80;99.90;;;;;;4996370;28;20412;-90
2021/07/14 12:19:58;;;;;;;72.30;44.13;;;20.90;99.90;;;;;;4993541;28;20454;-88
2021/07/14 12:22:35;;;;;;;57.23;42.33;;;21.30;99.90;;;;;;4986331;28;20467;-89
2021/07/14 12:25:12;;;;;;;61.80;42.77;;;23.00;99.90;;;;;;4993987;28;20452;-89
2021/07/14 12:27:41;;;;;;;66.30;43.37;;;21.50;99.90;;;;;;4987644;28;20419;-88
2021/07/14 12:30:20;;;;;;;56.43;43.93;;;22.40;99.90;;;;;;4989990;28;20454;-89
2021/07/14 12:32:54;;;;;;;56.00;42.87;;;20.50;99.90;;;;;;4990424;28;20478;-88
2021/07/14 12:35:36;;;;;;;51.00;40.93;;;21.40;99.90;;;;;;5009413;28;20428;-89
2021/07/14 12:38:26;;;;;;;55.83;42.47;;;23.60;99.90;;;;;;4987595;28;20470;-89
2021/07/14 12:40:55;;;;;;;62.30;44.33;;;20.90;99.90;;;;;;4938752;28;20409;-88
2021/07/14 12:44:12;;;;;;;;;;;;;;;;;;;;;
2021/07/14 12:46:45;;;;;;;55.27;39.80;;;23.80;99.90;;;;;;4981341;28;20444;-88
2021/07/14 12:49:53;;;;;;;;;;;;;;;;;;;;;
2021/07/14 12:55:52;;;;;;;55.17;42.43;;;23.30;99.90;;;;;;4964532;28;20428;-87
2021/07/14 12:58:29;;;;;;;56.33;43.23;;;22.70;99.90;;;;;;4631435;28;10000509;-89
2021/07/14 13:01:39;;;;;;;62.40;46.30;;;22.70;99.90;;;;;;4977873;28;20272;-88
2021/07/14 13:04:35;;;;;;;54.87;43.77;;;22.50;99.90;;;;;;4977040;28;20978;-88
2021/07/14 13:07:10;;;;;;;51.53;41.63;;;24.90;99.90;;;;;;4975116;28;20417;-89